sensor_id;sensor_type;location;lat;lon;timestamp;P1;durP1;ratioP1;P2;durP2;ratioP2
7334;SDS011;3708;42.632;23.378;2022-12-07T00:00:57;42.63;;;24.03;;
7334;SDS011;3708;42.632;23.378;2022-12-07T00:03:32;38.93;;;24.20;;
7334;SDS011;3708;42.632;23.378;2022-12-07T00:06:01;38.10;;;21.30;;
7334;SDS011;3708;42.632;23.378;2022-12-07T00:08:31;34.00;;;21.83;;
7334;SDS011;3708;42.632;23.378;2022-12-07T00:11:01;37.27;;;21.90;;
7334;SDS011;3708;42.632;23.378;2022-12-07T00:13:30;34.83;;;21.30;;
7334;SDS011;3708;42.632;23.378;2022-12-07T00:16:00;45.43;;;23.60;;
7334;SDS011;3708;42.632;23.378;2022-12-07T00:18:35;41.00;;;23.97;;
7334;SDS011;3708;42.632;23.378;2022-12-07T00:21:03;45.63;;;24.07;;
7334;SDS011;3708;42.632;23.378;2022-12-07T00:23:32;44.10;;;24.87;;
7334;SDS011;3708;42.632;23.378;2022-12-07T00:26:03;33.90;;;21.87;;
7334;SDS011;3708;42.632;23.378;2022-12-07T00:28:34;38.23;;;22.43;;
7334;SDS011;3708;42.632;23.378;2022-12-07T00:31:03;41.73;;;23.33;;
7334;SDS011;3708;42.632;23.378;2022-12-07T00:33:32;41.93;;;24.37;;
7334;SDS011;3708;42.632;23.378;2022-12-07T00:36:00;37.63;;;22.37;;
7334;SDS011;3708;42.632;23.378;2022-12-07T00:38:27;38.33;;;24.03;;
7334;SDS011;3708;42.632;23.378;2022-12-07T00:40:56;38.77;;;22.43;;
7334;SDS011;3708;42.632;23.378;2022-12-07T00:43:23;31.17;;;19.67;;
7334;SDS011;3708;42.632;23.378;2022-12-07T00:45:52;37.00;;;19.60;;
7334;SDS011;3708;42.632;23.378;2022-12-07T00:48:19;31.83;;;19.77;;
7334;SDS011;3708;42.632;23.378;2022-12-07T00:50:48;38.23;;;19.57;;
7334;SDS011;3708;42.632;23.378;2022-12-07T00:53:16;33.70;;;19.87;;
7334;SDS011;3708;42.632;23.378;2022-12-07T00:55:45;35.67;;;20.30;;
7334;SDS011;3708;42.632;23.378;2022-12-07T00:58:14;34.93;;;20.13;;
7334;SDS011;3708;42.632;23.378;2022-12-07T01:00:42;31.30;;;19.43;;
7334;SDS011;3708;42.632;23.378;2022-12-07T01:03:11;35.17;;;19.27;;
7334;SDS011;3708;42.632;23.378;2022-12-07T01:05:40;28.97;;;17.73;;
7334;SDS011;3708;42.632;23.378;2022-12-07T01:08:15;28.73;;;17.43;;
7334;SDS011;3708;42.632;23.378;2022-12-07T01:10:43;33.80;;;17.53;;
7334;SDS011;3708;42.632;23.378;2022-12-07T01:13:18;32.33;;;18.73;;
7334;SDS011;3708;42.632;23.378;2022-12-07T01:15:55;33.77;;;20.33;;
7334;SDS011;3708;42.632;23.378;2022-12-07T01:18:32;41.20;;;23.13;;
7334;SDS011;3708;42.632;23.378;2022-12-07T01:21:01;40.27;;;24.83;;
7334;SDS011;3708;42.632;23.378;2022-12-07T01:23:34;56.17;;;27.20;;
7334;SDS011;3708;42.632;23.378;2022-12-07T01:26:04;54.50;;;28.00;;
7334;SDS011;3708;42.632;23.378;2022-12-07T01:28:33;49.20;;;25.17;;
7334;SDS011;3708;42.632;23.378;2022-12-07T01:31:06;47.63;;;26.33;;
7334;SDS011;3708;42.632;23.378;2022-12-07T01:33:38;50.23;;;28.53;;
7334;SDS011;3708;42.632;23.378;2022-12-07T01:36:12;50.07;;;27.30;;
7334;SDS011;3708;42.632;23.378;2022-12-07T01:38:44;48.40;;;26.17;;
7334;SDS011;3708;42.632;23.378;2022-12-07T01:41:26;44.20;;;25.50;;
7334;SDS011;3708;42.632;23.378;2022-12-07T01:44:12;44.97;;;25.37;;
7334;SDS011;3708;42.632;23.378;2022-12-07T01:46:47;41.40;;;23.13;;
7334;SDS011;3708;42.632;23.378;2022-12-07T01:49:22;36.43;;;23.00;;
7334;SDS011;3708;42.632;23.378;2022-12-07T01:52:13;46.70;;;24.87;;
7334;SDS011;3708;42.632;23.378;2022-12-07T01:54:54;41.17;;;24.33;;
7334;SDS011;3708;42.632;23.378;2022-12-07T01:57:24;42.67;;;24.67;;
7334;SDS011;3708;42.632;23.378;2022-12-07T01:59:57;47.10;;;23.43;;
7334;SDS011;3708;42.632;23.378;2022-12-07T02:02:32;39.57;;;24.13;;
7334;SDS011;3708;42.632;23.378;2022-12-07T02:05:10;49.13;;;27.93;;
7334;SDS011;3708;42.632;23.378;2022-12-07T02:07:42;44.17;;;27.53;;
7334;SDS011;3708;42.632;23.378;2022-12-07T02:10:15;51.80;;;27.47;;
7334;SDS011;3708;42.632;23.378;2022-12-07T02:12:45;48.03;;;27.70;;
7334;SDS011;3708;42.632;23.378;2022-12-07T02:15:26;43.23;;;25.87;;
7334;SDS011;3708;42.632;23.378;2022-12-07T02:18:15;45.77;;;25.07;;
7334;SDS011;3708;42.632;23.378;2022-12-07T02:20:53;38.27;;;24.87;;
7334;SDS011;3708;42.632;23.378;2022-12-07T02:23:34;47.17;;;24.43;;
7334;SDS011;3708;42.632;23.378;2022-12-07T02:29:24;50.57;;;25.43;;
7334;SDS011;3708;42.632;23.378;2022-12-07T02:32:01;41.57;;;23.40;;
7334;SDS011;3708;42.632;23.378;2022-12-07T02:34:36;43.90;;;25.70;;
7334;SDS011;3708;42.632;23.378;2022-12-07T02:37:15;48.87;;;26.07;;
7334;SDS011;3708;42.632;23.378;2022-12-07T02:39:51;46.30;;;26.33;;
7334;SDS011;3708;42.632;23.378;2022-12-07T02:42:26;42.17;;;24.43;;
7334;SDS011;3708;42.632;23.378;2022-12-07T02:44:59;48.40;;;26.10;;
7334;SDS011;3708;42.632;23.378;2022-12-07T02:47:30;44.83;;;25.03;;
7334;SDS011;3708;42.632;23.378;2022-12-07T02:50:12;46.83;;;26.47;;
7334;SDS011;3708;42.632;23.378;2022-12-07T02:52:44;58.10;;;28.20;;
7334;SDS011;3708;42.632;23.378;2022-12-07T02:55:11;47.87;;;26.47;;
7334;SDS011;3708;42.632;23.378;2022-12-07T03:00:37;42.63;;;26.67;;
7334;SDS011;3708;42.632;23.378;2022-12-07T03:03:11;47.73;;;26.40;;
7334;SDS011;3708;42.632;23.378;2022-12-07T03:05:44;45.60;;;24.73;;
7334;SDS011;3708;42.632;23.378;2022-12-07T03:08:28;42.03;;;23.10;;
7334;SDS011;3708;42.632;23.378;2022-12-07T03:11:03;44.50;;;25.70;;
7334;SDS011;3708;42.632;23.378;2022-12-07T03:13:33;47.77;;;23.77;;
7334;SDS011;3708;42.632;23.378;2022-12-07T03:16:08;44.03;;;22.97;;
7334;SDS011;3708;42.632;23.378;2022-12-07T03:18:40;38.70;;;21.67;;
7334;SDS011;3708;42.632;23.378;2022-12-07T03:21:13;37.70;;;21.73;;
7334;SDS011;3708;42.632;23.378;2022-12-07T03:23:43;44.83;;;24.17;;
7334;SDS011;3708;42.632;23.378;2022-12-07T03:26:15;45.20;;;23.40;;
7334;SDS011;3708;42.632;23.378;2022-12-07T03:28:50;35.70;;;21.63;;
7334;SDS011;3708;42.632;23.378;2022-12-07T03:31:23;46.27;;;24.27;;
7334;SDS011;3708;42.632;23.378;2022-12-07T03:33:54;43.53;;;23.53;;
7334;SDS011;3708;42.632;23.378;2022-12-07T03:36:28;49.67;;;25.97;;
7334;SDS011;3708;42.632;23.378;2022-12-07T03:39:00;42.27;;;24.10;;
7334;SDS011;3708;42.632;23.378;2022-12-07T03:41:36;39.33;;;23.50;;
7334;SDS011;3708;42.632;23.378;2022-12-07T03:44:04;37.47;;;22.00;;
7334;SDS011;3708;42.632;23.378;2022-12-07T03:46:47;45.97;;;24.63;;
7334;SDS011;3708;42.632;23.378;2022-12-07T03:49:25;43.33;;;23.50;;
7334;SDS011;3708;42.632;23.378;2022-12-07T03:51:55;44.13;;;24.73;;
7334;SDS011;3708;42.632;23.378;2022-12-07T03:54:33;43.57;;;24.27;;
7334;SDS011;3708;42.632;23.378;2022-12-07T03:57:04;40.67;;;23.00;;
7334;SDS011;3708;42.632;23.378;2022-12-07T03:59:33;38.37;;;22.80;;
7334;SDS011;3708;42.632;23.378;2022-12-07T04:02:03;45.43;;;24.97;;
7334;SDS011;3708;42.632;23.378;2022-12-07T04:04:34;41.53;;;22.97;;
7334;SDS011;3708;42.632;23.378;2022-12-07T04:07:01;47.23;;;24.17;;
7334;SDS011;3708;42.632;23.378;2022-12-07T04:09:29;40.17;;;24.30;;
7334;SDS011;3708;42.632;23.378;2022-12-07T04:11:56;44.60;;;26.17;;
7334;SDS011;3708;42.632;23.378;2022-12-07T04:14:23;43.83;;;24.33;;
7334;SDS011;3708;42.632;23.378;2022-12-07T04:16:52;42.73;;;24.70;;
7334;SDS011;3708;42.632;23.378;2022-12-07T04:19:25;45.03;;;24.60;;
7334;SDS011;3708;42.632;23.378;2022-12-07T04:21:54;39.37;;;25.23;;
7334;SDS011;3708;42.632;23.378;2022-12-07T04:24:21;42.47;;;22.97;;
7334;SDS011;3708;42.632;23.378;2022-12-07T04:26:48;45.37;;;24.23;;
7334;SDS011;3708;42.632;23.378;2022-12-07T04:29:16;51.40;;;23.53;;
7334;SDS011;3708;42.632;23.378;2022-12-07T04:31:44;38.60;;;23.23;;
7334;SDS011;3708;42.632;23.378;2022-12-07T04:34:11;43.57;;;24.70;;
7334;SDS011;3708;42.632;23.378;2022-12-07T04:36:40;37.30;;;23.00;;
7334;SDS011;3708;42.632;23.378;2022-12-07T04:39:13;40.90;;;23.27;;
7334;SDS011;3708;42.632;23.378;2022-12-07T04:41:44;38.07;;;22.10;;
7334;SDS011;3708;42.632;23.378;2022-12-07T04:44:11;42.17;;;23.83;;
7334;SDS011;3708;42.632;23.378;2022-12-07T04:46:40;38.63;;;23.07;;
7334;SDS011;3708;42.632;23.378;2022-12-07T04:49:08;39.10;;;22.43;;
7334;SDS011;3708;42.632;23.378;2022-12-07T04:51:36;39.37;;;22.60;;
7334;SDS011;3708;42.632;23.378;2022-12-07T04:54:04;33.97;;;20.70;;
7334;SDS011;3708;42.632;23.378;2022-12-07T04:56:32;40.70;;;22.93;;
7334;SDS011;3708;42.632;23.378;2022-12-07T04:59:06;47.00;;;26.37;;
7334;SDS011;3708;42.632;23.378;2022-12-07T05:01:48;52.33;;;24.43;;
7334;SDS011;3708;42.632;23.378;2022-12-07T05:04:22;43.60;;;24.73;;
7334;SDS011;3708;42.632;23.378;2022-12-07T05:06:52;41.60;;;23.77;;
7334;SDS011;3708;42.632;23.378;2022-12-07T05:09:21;41.10;;;22.83;;
7334;SDS011;3708;42.632;23.378;2022-12-07T05:11:53;36.97;;;21.57;;
7334;SDS011;3708;42.632;23.378;2022-12-07T05:14:22;35.03;;;21.07;;
7334;SDS011;3708;42.632;23.378;2022-12-07T05:16:49;39.77;;;23.10;;
7334;SDS011;3708;42.632;23.378;2022-12-07T05:19:18;38.07;;;21.67;;
7334;SDS011;3708;42.632;23.378;2022-12-07T05:21:46;37.33;;;21.60;;
7334;SDS011;3708;42.632;23.378;2022-12-07T05:24:15;44.07;;;24.50;;
7334;SDS011;3708;42.632;23.378;2022-12-07T05:26:44;37.90;;;22.40;;
7334;SDS011;3708;42.632;23.378;2022-12-07T05:29:12;46.27;;;24.10;;
7334;SDS011;3708;42.632;23.378;2022-12-07T05:31:40;46.67;;;24.73;;
7334;SDS011;3708;42.632;23.378;2022-12-07T05:34:08;41.30;;;23.80;;
7334;SDS011;3708;42.632;23.378;2022-12-07T05:36:36;43.30;;;25.43;;
7334;SDS011;3708;42.632;23.378;2022-12-07T05:39:03;44.57;;;24.33;;
7334;SDS011;3708;42.632;23.378;2022-12-07T05:41:30;45.20;;;26.97;;
7334;SDS011;3708;42.632;23.378;2022-12-07T05:44:17;40.20;;;22.67;;
7334;SDS011;3708;42.632;23.378;2022-12-07T05:46:45;43.43;;;24.07;;
7334;SDS011;3708;42.632;23.378;2022-12-07T05:49:12;42.07;;;24.03;;
7334;SDS011;3708;42.632;23.378;2022-12-07T05:51:38;45.03;;;25.90;;
7334;SDS011;3708;42.632;23.378;2022-12-07T05:54:05;44.13;;;23.77;;
7334;SDS011;3708;42.632;23.378;2022-12-07T05:56:33;42.17;;;23.37;;
7334;SDS011;3708;42.632;23.378;2022-12-07T05:59:01;41.63;;;23.47;;
7334;SDS011;3708;42.632;23.378;2022-12-07T06:01:47;52.40;;;24.50;;
7334;SDS011;3708;42.632;23.378;2022-12-07T06:04:14;45.23;;;23.30;;
7334;SDS011;3708;42.632;23.378;2022-12-07T06:06:41;40.77;;;24.43;;
7334;SDS011;3708;42.632;23.378;2022-12-07T06:09:08;39.60;;;24.13;;
7334;SDS011;3708;42.632;23.378;2022-12-07T06:11:35;37.83;;;21.87;;
7334;SDS011;3708;42.632;23.378;2022-12-07T06:14:20;43.63;;;22.33;;
7334;SDS011;3708;42.632;23.378;2022-12-07T06:16:48;41.47;;;22.20;;
7334;SDS011;3708;42.632;23.378;2022-12-07T06:19:15;39.83;;;22.10;;
7334;SDS011;3708;42.632;23.378;2022-12-07T06:21:42;39.97;;;22.20;;
7334;SDS011;3708;42.632;23.378;2022-12-07T06:24:10;41.47;;;21.83;;
7334;SDS011;3708;42.632;23.378;2022-12-07T06:26:38;44.30;;;23.10;;
7334;SDS011;3708;42.632;23.378;2022-12-07T06:29:05;44.73;;;23.80;;
7334;SDS011;3708;42.632;23.378;2022-12-07T06:31:32;38.47;;;22.87;;
7334;SDS011;3708;42.632;23.378;2022-12-07T06:34:01;41.43;;;24.70;;
7334;SDS011;3708;42.632;23.378;2022-12-07T06:36:31;37.73;;;23.20;;
7334;SDS011;3708;42.632;23.378;2022-12-07T06:38:59;36.67;;;22.20;;
7334;SDS011;3708;42.632;23.378;2022-12-07T06:41:29;46.70;;;23.03;;
7334;SDS011;3708;42.632;23.378;2022-12-07T06:43:56;48.57;;;24.97;;
7334;SDS011;3708;42.632;23.378;2022-12-07T06:46:23;43.80;;;24.17;;
7334;SDS011;3708;42.632;23.378;2022-12-07T06:48:51;48.60;;;25.03;;
7334;SDS011;3708;42.632;23.378;2022-12-07T06:51:20;42.77;;;24.27;;
7334;SDS011;3708;42.632;23.378;2022-12-07T06:53:47;43.77;;;24.17;;
7334;SDS011;3708;42.632;23.378;2022-12-07T06:56:15;48.80;;;25.40;;
7334;SDS011;3708;42.632;23.378;2022-12-07T06:58:42;48.50;;;25.23;;
7334;SDS011;3708;42.632;23.378;2022-12-07T07:01:09;44.10;;;24.17;;
7334;SDS011;3708;42.632;23.378;2022-12-07T07:03:38;42.90;;;23.97;;
7334;SDS011;3708;42.632;23.378;2022-12-07T07:06:06;48.87;;;23.60;;
7334;SDS011;3708;42.632;23.378;2022-12-07T07:08:35;48.93;;;25.53;;
7334;SDS011;3708;42.632;23.378;2022-12-07T07:11:02;46.60;;;25.07;;
7334;SDS011;3708;42.632;23.378;2022-12-07T07:13:30;37.23;;;23.87;;
7334;SDS011;3708;42.632;23.378;2022-12-07T07:15:57;43.63;;;24.97;;
7334;SDS011;3708;42.632;23.378;2022-12-07T07:18:24;48.03;;;27.03;;
7334;SDS011;3708;42.632;23.378;2022-12-07T07:20:51;48.60;;;26.00;;
7334;SDS011;3708;42.632;23.378;2022-12-07T07:23:19;50.47;;;26.37;;
7334;SDS011;3708;42.632;23.378;2022-12-07T07:25:49;49.50;;;25.57;;
7334;SDS011;3708;42.632;23.378;2022-12-07T07:28:16;50.37;;;26.03;;
7334;SDS011;3708;42.632;23.378;2022-12-07T07:30:44;49.33;;;25.90;;
7334;SDS011;3708;42.632;23.378;2022-12-07T07:33:11;50.30;;;27.67;;
7334;SDS011;3708;42.632;23.378;2022-12-07T07:35:39;55.53;;;26.90;;
7334;SDS011;3708;42.632;23.378;2022-12-07T07:38:06;49.33;;;25.40;;
7334;SDS011;3708;42.632;23.378;2022-12-07T07:40:33;47.73;;;27.10;;
7334;SDS011;3708;42.632;23.378;2022-12-07T07:43:02;43.97;;;25.80;;
7334;SDS011;3708;42.632;23.378;2022-12-07T07:45:29;42.43;;;24.00;;
7334;SDS011;3708;42.632;23.378;2022-12-07T07:47:56;50.53;;;26.27;;
7334;SDS011;3708;42.632;23.378;2022-12-07T07:50:23;49.67;;;26.07;;
7334;SDS011;3708;42.632;23.378;2022-12-07T07:52:50;52.50;;;27.00;;
7334;SDS011;3708;42.632;23.378;2022-12-07T07:55:18;47.50;;;26.43;;
7334;SDS011;3708;42.632;23.378;2022-12-07T07:57:45;52.47;;;25.43;;
7334;SDS011;3708;42.632;23.378;2022-12-07T08:00:16;46.30;;;25.30;;
7334;SDS011;3708;42.632;23.378;2022-12-07T08:02:44;49.17;;;26.27;;
7334;SDS011;3708;42.632;23.378;2022-12-07T08:05:11;49.43;;;27.13;;
7334;SDS011;3708;42.632;23.378;2022-12-07T08:07:39;37.40;;;22.83;;
7334;SDS011;3708;42.632;23.378;2022-12-07T08:10:07;33.13;;;21.53;;
7334;SDS011;3708;42.632;23.378;2022-12-07T08:12:36;42.07;;;22.87;;
7334;SDS011;3708;42.632;23.378;2022-12-07T08:15:26;36.30;;;22.47;;
7334;SDS011;3708;42.632;23.378;2022-12-07T08:17:55;33.17;;;20.13;;
7334;SDS011;3708;42.632;23.378;2022-12-07T08:20:22;35.60;;;21.33;;
7334;SDS011;3708;42.632;23.378;2022-12-07T08:22:49;32.97;;;19.87;;
7334;SDS011;3708;42.632;23.378;2022-12-07T08:25:15;37.67;;;21.17;;
7334;SDS011;3708;42.632;23.378;2022-12-07T08:27:42;34.93;;;21.47;;
7334;SDS011;3708;42.632;23.378;2022-12-07T08:30:09;39.70;;;21.20;;
7334;SDS011;3708;42.632;23.378;2022-12-07T08:32:38;35.50;;;22.03;;
7334;SDS011;3708;42.632;23.378;2022-12-07T08:35:05;39.47;;;21.97;;
7334;SDS011;3708;42.632;23.378;2022-12-07T08:37:33;36.17;;;21.23;;
7334;SDS011;3708;42.632;23.378;2022-12-07T08:40:00;37.43;;;21.80;;
7334;SDS011;3708;42.632;23.378;2022-12-07T08:42:27;39.97;;;21.67;;
7334;SDS011;3708;42.632;23.378;2022-12-07T08:44:55;36.60;;;20.87;;
7334;SDS011;3708;42.632;23.378;2022-12-07T08:47:23;31.33;;;19.50;;
7334;SDS011;3708;42.632;23.378;2022-12-07T08:49:52;38.73;;;20.83;;
7334;SDS011;3708;42.632;23.378;2022-12-07T08:52:20;42.17;;;20.87;;
7334;SDS011;3708;42.632;23.378;2022-12-07T08:54:47;36.97;;;20.17;;
7334;SDS011;3708;42.632;23.378;2022-12-07T08:57:15;38.50;;;21.63;;
7334;SDS011;3708;42.632;23.378;2022-12-07T08:59:41;44.47;;;22.97;;
7334;SDS011;3708;42.632;23.378;2022-12-07T09:02:09;38.87;;;22.40;;
7334;SDS011;3708;42.632;23.378;2022-12-07T09:04:36;44.57;;;21.43;;
7334;SDS011;3708;42.632;23.378;2022-12-07T09:07:04;43.37;;;23.00;;
7334;SDS011;3708;42.632;23.378;2022-12-07T09:09:31;42.40;;;22.93;;
7334;SDS011;3708;42.632;23.378;2022-12-07T09:11:58;34.67;;;21.30;;
7334;SDS011;3708;42.632;23.378;2022-12-07T09:14:25;35.20;;;20.53;;
7334;SDS011;3708;42.632;23.378;2022-12-07T09:16:52;41.30;;;22.53;;
7334;SDS011;3708;42.632;23.378;2022-12-07T09:19:19;41.40;;;22.17;;
7334;SDS011;3708;42.632;23.378;2022-12-07T09:21:46;37.30;;;20.87;;
7334;SDS011;3708;42.632;23.378;2022-12-07T09:24:14;36.53;;;21.13;;
7334;SDS011;3708;42.632;23.378;2022-12-07T09:26:41;36.20;;;21.57;;
7334;SDS011;3708;42.632;23.378;2022-12-07T09:29:09;40.60;;;21.30;;
7334;SDS011;3708;42.632;23.378;2022-12-07T09:31:39;39.23;;;20.83;;
7334;SDS011;3708;42.632;23.378;2022-12-07T09:34:06;41.87;;;21.70;;
7334;SDS011;3708;42.632;23.378;2022-12-07T09:36:33;38.90;;;22.00;;
7334;SDS011;3708;42.632;23.378;2022-12-07T09:39:00;36.20;;;19.20;;
7334;SDS011;3708;42.632;23.378;2022-12-07T09:41:29;37.33;;;21.77;;
7334;SDS011;3708;42.632;23.378;2022-12-07T09:43:58;35.73;;;19.97;;
7334;SDS011;3708;42.632;23.378;2022-12-07T09:46:30;42.67;;;21.00;;
7334;SDS011;3708;42.632;23.378;2022-12-07T09:49:02;43.63;;;20.77;;
7334;SDS011;3708;42.632;23.378;2022-12-07T09:51:30;30.23;;;19.73;;
7334;SDS011;3708;42.632;23.378;2022-12-07T09:53:58;36.33;;;20.33;;
7334;SDS011;3708;42.632;23.378;2022-12-07T09:56:37;34.63;;;21.27;;
7334;SDS011;3708;42.632;23.378;2022-12-07T09:59:04;34.50;;;19.83;;
7334;SDS011;3708;42.632;23.378;2022-12-07T10:01:31;42.47;;;21.27;;
7334;SDS011;3708;42.632;23.378;2022-12-07T10:04:01;35.50;;;19.77;;
7334;SDS011;3708;42.632;23.378;2022-12-07T10:06:35;35.50;;;20.03;;
7334;SDS011;3708;42.632;23.378;2022-12-07T10:09:08;36.83;;;21.13;;
7334;SDS011;3708;42.632;23.378;2022-12-07T10:14:27;31.80;;;18.77;;
7334;SDS011;3708;42.632;23.378;2022-12-07T10:16:56;32.37;;;18.43;;
7334;SDS011;3708;42.632;23.378;2022-12-07T10:19:24;26.93;;;16.47;;
7334;SDS011;3708;42.632;23.378;2022-12-07T10:24:46;32.37;;;16.13;;
7334;SDS011;3708;42.632;23.378;2022-12-07T10:27:19;32.57;;;16.97;;
7334;SDS011;3708;42.632;23.378;2022-12-07T10:29:48;29.30;;;15.87;;
7334;SDS011;3708;42.632;23.378;2022-12-07T10:32:31;25.40;;;16.33;;
7334;SDS011;3708;42.632;23.378;2022-12-07T10:35:20;39.23;;;22.10;;
7334;SDS011;3708;42.632;23.378;2022-12-07T10:37:50;32.60;;;18.23;;
7334;SDS011;3708;42.632;23.378;2022-12-07T10:40:28;27.77;;;15.83;;
7334;SDS011;3708;42.632;23.378;2022-12-07T10:43:04;32.30;;;17.33;;
7334;SDS011;3708;42.632;23.378;2022-12-07T10:45:41;31.03;;;16.77;;
7334;SDS011;3708;42.632;23.378;2022-12-07T10:48:35;28.30;;;15.17;;
7334;SDS011;3708;42.632;23.378;2022-12-07T10:51:11;32.40;;;17.67;;
7334;SDS011;3708;42.632;23.378;2022-12-07T10:53:47;32.57;;;16.53;;
7334;SDS011;3708;42.632;23.378;2022-12-07T10:56:42;35.10;;;18.17;;
7334;SDS011;3708;42.632;23.378;2022-12-07T10:59:24;30.50;;;17.63;;
7334;SDS011;3708;42.632;23.378;2022-12-07T11:02:02;33.03;;;15.97;;
7334;SDS011;3708;42.632;23.378;2022-12-07T11:04:45;26.27;;;15.80;;
7334;SDS011;3708;42.632;23.378;2022-12-07T11:07:27;32.07;;;15.87;;
7334;SDS011;3708;42.632;23.378;2022-12-07T11:10:05;31.90;;;17.23;;
7334;SDS011;3708;42.632;23.378;2022-12-07T11:12:44;36.90;;;17.40;;
7334;SDS011;3708;42.632;23.378;2022-12-07T11:15:29;34.77;;;16.77;;
7334;SDS011;3708;42.632;23.378;2022-12-07T11:18:09;32.50;;;17.57;;
7334;SDS011;3708;42.632;23.378;2022-12-07T11:20:41;26.40;;;17.23;;
7334;SDS011;3708;42.632;23.378;2022-12-07T11:23:13;29.80;;;16.33;;
7334;SDS011;3708;42.632;23.378;2022-12-07T11:25:49;33.57;;;17.80;;
7334;SDS011;3708;42.632;23.378;2022-12-07T11:28:28;29.53;;;16.40;;
7334;SDS011;3708;42.632;23.378;2022-12-07T11:31:08;29.23;;;17.07;;
7334;SDS011;3708;42.632;23.378;2022-12-07T11:33:46;30.23;;;18.00;;
7334;SDS011;3708;42.632;23.378;2022-12-07T11:36:25;33.67;;;18.40;;
7334;SDS011;3708;42.632;23.378;2022-12-07T11:39:00;38.23;;;21.37;;
7334;SDS011;3708;42.632;23.378;2022-12-07T11:41:31;36.57;;;16.83;;
7334;SDS011;3708;42.632;23.378;2022-12-07T11:44:04;31.63;;;17.37;;
7334;SDS011;3708;42.632;23.378;2022-12-07T11:46:42;34.00;;;18.23;;
7334;SDS011;3708;42.632;23.378;2022-12-07T11:49:14;36.63;;;19.47;;
7334;SDS011;3708;42.632;23.378;2022-12-07T11:51:47;36.67;;;21.90;;
7334;SDS011;3708;42.632;23.378;2022-12-07T11:54:21;39.50;;;19.77;;
7334;SDS011;3708;42.632;23.378;2022-12-07T11:56:53;42.50;;;18.97;;
7334;SDS011;3708;42.632;23.378;2022-12-07T11:59:23;34.77;;;18.67;;
7334;SDS011;3708;42.632;23.378;2022-12-07T12:02:00;31.40;;;19.27;;
7334;SDS011;3708;42.632;23.378;2022-12-07T12:04:42;33.97;;;18.03;;
7334;SDS011;3708;42.632;23.378;2022-12-07T12:07:17;30.10;;;16.27;;
7334;SDS011;3708;42.632;23.378;2022-12-07T12:09:49;30.67;;;16.87;;
7334;SDS011;3708;42.632;23.378;2022-12-07T12:15:23;38.23;;;17.17;;
7334;SDS011;3708;42.632;23.378;2022-12-07T12:18:15;28.00;;;16.43;;
7334;SDS011;3708;42.632;23.378;2022-12-07T12:21:04;36.13;;;16.27;;
7334;SDS011;3708;42.632;23.378;2022-12-07T12:23:37;29.60;;;16.10;;
7334;SDS011;3708;42.632;23.378;2022-12-07T12:26:08;29.57;;;16.13;;
7334;SDS011;3708;42.632;23.378;2022-12-07T12:28:56;30.23;;;15.97;;
7334;SDS011;3708;42.632;23.378;2022-12-07T12:31:46;28.73;;;14.97;;
7334;SDS011;3708;42.632;23.378;2022-12-07T12:34:33;31.97;;;17.50;;
7334;SDS011;3708;42.632;23.378;2022-12-07T12:55:12;29.07;;;16.63;;
7334;SDS011;3708;42.632;23.378;2022-12-07T12:57:44;28.50;;;15.80;;
7334;SDS011;3708;42.632;23.378;2022-12-07T13:00:17;28.20;;;17.30;;
7334;SDS011;3708;42.632;23.378;2022-12-07T13:02:47;32.43;;;17.17;;
7334;SDS011;3708;42.632;23.378;2022-12-07T13:05:29;33.00;;;15.80;;
7334;SDS011;3708;42.632;23.378;2022-12-07T13:07:58;26.97;;;14.97;;
7334;SDS011;3708;42.632;23.378;2022-12-07T13:10:33;31.50;;;15.90;;
7334;SDS011;3708;42.632;23.378;2022-12-07T13:13:25;32.83;;;17.43;;
7334;SDS011;3708;42.632;23.378;2022-12-07T13:22:40;25.97;;;13.33;;
7334;SDS011;3708;42.632;23.378;2022-12-07T13:25:28;28.90;;;13.77;;
7334;SDS011;3708;42.632;23.378;2022-12-07T13:28:01;20.93;;;13.33;;
7334;SDS011;3708;42.632;23.378;2022-12-07T13:30:40;23.57;;;14.00;;
7334;SDS011;3708;42.632;23.378;2022-12-07T13:33:12;26.60;;;13.70;;
7334;SDS011;3708;42.632;23.378;2022-12-07T13:35:42;24.00;;;13.20;;
7334;SDS011;3708;42.632;23.378;2022-12-07T13:38:21;23.37;;;12.73;;
7334;SDS011;3708;42.632;23.378;2022-12-07T13:41:00;21.87;;;11.37;;
7334;SDS011;3708;42.632;23.378;2022-12-07T13:43:46;25.23;;;12.50;;
7334;SDS011;3708;42.632;23.378;2022-12-07T13:46:17;31.00;;;13.07;;
7334;SDS011;3708;42.632;23.378;2022-12-07T13:48:50;21.87;;;13.17;;
7334;SDS011;3708;42.632;23.378;2022-12-07T13:51:18;27.03;;;14.70;;
7334;SDS011;3708;42.632;23.378;2022-12-07T13:53:50;26.43;;;14.70;;
7334;SDS011;3708;42.632;23.378;2022-12-07T13:56:20;32.77;;;15.00;;
7334;SDS011;3708;42.632;23.378;2022-12-07T13:58:48;31.00;;;15.03;;
7334;SDS011;3708;42.632;23.378;2022-12-07T14:01:15;28.37;;;13.87;;
7334;SDS011;3708;42.632;23.378;2022-12-07T14:03:43;30.43;;;14.80;;
7334;SDS011;3708;42.632;23.378;2022-12-07T14:06:23;25.60;;;14.77;;
7334;SDS011;3708;42.632;23.378;2022-12-07T14:09:07;29.40;;;14.40;;
7334;SDS011;3708;42.632;23.378;2022-12-07T14:11:35;27.53;;;14.33;;
7334;SDS011;3708;42.632;23.378;2022-12-07T14:14:06;21.07;;;13.77;;
7334;SDS011;3708;42.632;23.378;2022-12-07T14:16:43;28.40;;;14.53;;
7334;SDS011;3708;42.632;23.378;2022-12-07T14:19:40;25.60;;;14.00;;
7334;SDS011;3708;42.632;23.378;2022-12-07T14:22:17;31.97;;;15.03;;
7334;SDS011;3708;42.632;23.378;2022-12-07T14:24:49;25.17;;;14.40;;
7334;SDS011;3708;42.632;23.378;2022-12-07T14:27:17;29.17;;;14.00;;
7334;SDS011;3708;42.632;23.378;2022-12-07T14:29:50;27.20;;;14.87;;
7334;SDS011;3708;42.632;23.378;2022-12-07T14:32:22;33.03;;;15.40;;
7334;SDS011;3708;42.632;23.378;2022-12-07T14:34:54;29.57;;;14.07;;
7334;SDS011;3708;42.632;23.378;2022-12-07T14:37:22;35.00;;;14.90;;
7334;SDS011;3708;42.632;23.378;2022-12-07T14:39:51;32.63;;;14.63;;
7334;SDS011;3708;42.632;23.378;2022-12-07T14:42:20;27.20;;;12.90;;
7334;SDS011;3708;42.632;23.378;2022-12-07T14:44:51;26.20;;;13.07;;
7334;SDS011;3708;42.632;23.378;2022-12-07T14:47:17;25.37;;;13.13;;
7334;SDS011;3708;42.632;23.378;2022-12-07T14:49:44;25.90;;;14.53;;
7334;SDS011;3708;42.632;23.378;2022-12-07T14:52:13;29.97;;;14.10;;
7334;SDS011;3708;42.632;23.378;2022-12-07T14:54:42;25.47;;;13.70;;
7334;SDS011;3708;42.632;23.378;2022-12-07T14:57:11;27.03;;;14.40;;
7334;SDS011;3708;42.632;23.378;2022-12-07T15:00:01;28.10;;;12.87;;
7334;SDS011;3708;42.632;23.378;2022-12-07T15:02:28;23.77;;;14.13;;
7334;SDS011;3708;42.632;23.378;2022-12-07T15:04:55;22.87;;;13.73;;
7334;SDS011;3708;42.632;23.378;2022-12-07T15:07:22;38.03;;;15.97;;
7334;SDS011;3708;42.632;23.378;2022-12-07T15:09:49;34.30;;;14.70;;
7334;SDS011;3708;42.632;23.378;2022-12-07T15:12:23;34.93;;;15.70;;
7334;SDS011;3708;42.632;23.378;2022-12-07T15:14:50;32.57;;;14.93;;
7334;SDS011;3708;42.632;23.378;2022-12-07T15:17:19;38.80;;;16.77;;
7334;SDS011;3708;42.632;23.378;2022-12-07T15:19:47;39.90;;;17.50;;
7334;SDS011;3708;42.632;23.378;2022-12-07T15:22:17;44.73;;;17.77;;
7334;SDS011;3708;42.632;23.378;2022-12-07T15:24:44;46.73;;;17.67;;
7334;SDS011;3708;42.632;23.378;2022-12-07T15:27:11;36.50;;;21.37;;
7334;SDS011;3708;42.632;23.378;2022-12-07T15:29:49;45.50;;;22.57;;
7334;SDS011;3708;42.632;23.378;2022-12-07T15:32:16;35.60;;;19.90;;
7334;SDS011;3708;42.632;23.378;2022-12-07T15:34:43;34.30;;;18.20;;
7334;SDS011;3708;42.632;23.378;2022-12-07T15:37:13;41.03;;;19.10;;
7334;SDS011;3708;42.632;23.378;2022-12-07T15:39:42;38.00;;;18.33;;